Time;durP1;ratioP1;P1;durP2;ratioP2;P2;SDS_P1;SDS_P2;PMS_P1;PMS_P2;Temp;Humidity;BMP_temperature;BMP_pressure;BME280_temperature;BME280_humidity;BME280_pressure;Samples;Min_cycle;Max_cycle;Signal;HPM_P1;HPM_P2
2021/03/10 00:01:05;;;;;;;23.87;21.37;;;;;;;;;;5066044;22;20216;-69
2021/03/10 00:03:50;;;;;;;28.63;25.83;;;;;;;;;;5071041;28;20501;-69
2021/03/10 00:06:34;;;;;;;24.70;22.00;;;;;;;;;;5071149;28;20206;-69
2021/03/10 00:09:19;;;;;;;24.20;21.60;;;;;;;;;;5071608;28;20239;-69
2021/03/10 00:12:08;;;;;;;22.67;20.00;;;;;;;;;;5051658;28;20279;-69
2021/03/10 00:14:56;;;;;;;23.93;21.37;;;;;;;;;;5051466;28;20225;-69
2021/03/10 00:17:42;;;;;;;23.33;20.73;;;;;;;;;;5051050;28;20700;-69
2021/03/10 00:20:27;;;;;;;21.47;19.30;;;;;;;;;;5051461;28;20355;-69
2021/03/10 00:23:11;;;;;;;24.87;21.10;;;;;;;;;;5051464;28;20231;-69
2021/03/10 00:25:56;;;;;;;23.80;21.20;;;;;;;;;;5051410;28;20198;-69
2021/03/10 00:28:40;;;;;;;27.27;22.97;;;;;;;;;;5051159;28;20688;-69
2021/03/10 00:31:25;;;;;;;25.07;21.83;;;;;;;;;;5051500;28;20216;-69
2021/03/10 00:34:09;;;;;;;26.43;23.43;;;;;;;;;;5051391;28;20256;-69
2021/03/10 00:36:55;;;;;;;27.77;23.30;;;;;;;;;;5051003;28;20710;-69
2021/03/10 00:39:39;;;;;;;25.73;22.83;;;;;;;;;;5051572;28;20217;-69
2021/03/10 00:42:24;;;;;;;25.50;22.67;;;;;;;;;;5051479;28;20240;-69
2021/03/10 00:45:09;;;;;;;25.13;22.23;;;;;;;;;;5051080;28;20255;-69
2021/03/10 00:47:55;;;;;;;27.13;24.23;;;;;;;;;;5049956;28;20462;-69
2021/03/10 00:50:41;;;;;;;24.90;21.80;;;;;;;;;;5049112;28;20242;-69
2021/03/10 00:53:26;;;;;;;25.07;22.33;;;;;;;;;;5051148;28;20208;-69
2021/03/10 00:56:13;;;;;;;25.47;22.73;;;;;;;;;;5050287;28;20299;-69
2021/03/10 00:58:57;;;;;;;26.80;23.07;;;;;;;;;;5046490;28;20201;-69
2021/03/10 01:01:46;;;;;;;24.90;22.20;;;;;;;;;;5050038;28;20583;-69
2021/03/10 01:04:31;;;;;;;25.07;22.03;;;;;;;;;;5050452;28;20221;-69
2021/03/10 01:07:16;;;;;;;25.77;21.20;;;;;;;;;;5049622;28;20280;-69
2021/03/10 01:10:01;;;;;;;24.53;21.07;;;;;;;;;;5050754;28;20237;-68
2021/03/10 01:12:46;;;;;;;22.10;19.80;;;;;;;;;;5050910;28;20232;-69
2021/03/10 01:15:35;;;;;;;23.70;20.80;;;;;;;;;;5050442;28;21012;-68
2021/03/10 01:18:20;;;;;;;27.10;21.53;;;;;;;;;;5050658;28;20380;-68
2021/03/10 01:21:04;;;;;;;23.20;20.70;;;;;;;;;;5050665;28;20308;-68
2021/03/10 01:23:49;;;;;;;26.67;21.03;;;;;;;;;;5050753;28;20209;-69
2021/03/10 01:26:34;;;;;;;24.33;21.47;;;;;;;;;;5050130;28;20243;-68
2021/03/10 01:29:20;;;;;;;25.97;21.87;;;;;;;;;;5050285;28;20221;-69
2021/03/10 01:32:07;;;;;;;23.10;20.70;;;;;;;;;;5050484;28;20229;-69
2021/03/10 01:34:54;;;;;;;27.52;24.55;;;;;;;;;;5050251;28;20972;-68
2021/03/10 01:37:41;;;;;;;26.03;22.60;;;;;;;;;;5050224;28;20668;-68
2021/03/10 01:40:26;;;;;;;28.07;23.03;;;;;;;;;;5051704;28;20304;-68
2021/03/10 01:43:12;;;;;;;25.47;22.47;;;;;;;;;;5054589;28;20252;-69
2021/03/10 01:45:56;;;;;;;25.37;21.83;;;;;;;;;;5054114;28;20201;-69
2021/03/10 01:48:41;;;;;;;24.00;20.87;;;;;;;;;;5054566;28;20701;-69
2021/03/10 01:51:28;;;;;;;71.60;23.77;;;;;;;;;;5054132;28;20275;-69
2021/03/10 01:54:13;;;;;;;25.43;21.07;;;;;;;;;;5054313;28;20205;-69
2021/03/10 01:56:58;;;;;;;33.20;22.70;;;;;;;;;;5053776;28;20251;-69
2021/03/10 01:59:43;;;;;;;36.27;20.97;;;;;;;;;;5054000;28;20221;-69
2021/03/10 02:02:31;;;;;;;44.23;21.90;;;;;;;;;;5054065;28;20681;-70
2021/03/10 02:05:22;;;;;;;60.47;21.47;;;;;;;;;;5054126;28;20206;-69
2021/03/10 02:08:25;;;;;;;29.33;21.83;;;;;;;;;;5053479;28;20236;-69
2021/03/10 02:11:12;;;;;;;31.93;22.33;;;;;;;;;;5053877;28;20236;-69
2021/03/10 02:14:04;;;;;;;32.33;23.07;;;;;;;;;;5053925;28;20244;-69
2021/03/10 02:16:51;;;;;;;23.37;20.07;;;;;;;;;;5053110;28;20220;-69
2021/03/10 02:19:50;;;;;;;36.17;24.47;;;;;;;;;;5053817;28;20700;-69
2021/03/10 02:22:53;;;;;;;85.03;27.10;;;;;;;;;;5053899;28;20714;-69
2021/03/10 02:25:51;;;;;;;40.27;33.80;;;;;;;;;;5052339;28;20985;-69
2021/03/10 02:28:37;;;;;;;29.67;24.67;;;;;;;;;;5053770;28;20419;-69
2021/03/10 02:31:24;;;;;;;25.77;22.30;;;;;;;;;;5053673;28;20228;-69
2021/03/10 02:34:10;;;;;;;28.50;23.40;;;;;;;;;;5053559;28;20221;-70
2021/03/10 02:36:56;;;;;;;28.37;22.80;;;;;;;;;;5052604;28;20270;-69
2021/03/10 02:39:42;;;;;;;25.57;22.17;;;;;;;;;;5053055;28;20301;-69
2021/03/10 02:42:27;;;;;;;26.97;23.23;;;;;;;;;;5053372;28;20281;-69
2021/03/10 02:45:14;;;;;;;28.77;22.60;;;;;;;;;;5053365;28;20252;-69
2021/03/10 02:48:00;;;;;;;24.87;21.87;;;;;;;;;;5052883;28;20436;-69
2021/03/10 02:50:44;;;;;;;25.87;21.73;;;;;;;;;;5053153;28;20684;-69
2021/03/10 02:53:29;;;;;;;24.67;21.93;;;;;;;;;;5052899;28;20575;-69
2021/03/10 02:56:13;;;;;;;27.00;22.17;;;;;;;;;;5052364;28;20260;-69
2021/03/10 02:58:58;;;;;;;26.73;22.43;;;;;;;;;;5052882;28;20575;-69
2021/03/10 03:01:43;;;;;;;29.67;23.60;;;;;;;;;;5052955;28;20264;-69
2021/03/10 03:04:28;;;;;;;29.57;23.60;;;;;;;;;;5052848;28;20197;-68
2021/03/10 03:07:12;;;;;;;30.03;22.83;;;;;;;;;;5052793;28;20201;-69
2021/03/10 03:09:58;;;;;;;28.45;25.45;;;;;;;;;;5052528;28;20459;-70
2021/03/10 03:12:44;;;;;;;24.57;21.97;;;;;;;;;;5053015;28;20269;-69
2021/03/10 03:15:29;;;;;;;23.63;21.10;;;;;;;;;;5052994;28;20881;-69
2021/03/10 03:18:15;;;;;;;23.80;21.07;;;;;;;;;;5052457;28;20248;-69
2021/03/10 03:21:00;;;;;;;24.10;21.50;;;;;;;;;;5052408;28;20221;-70
2021/03/10 03:23:44;;;;;;;25.07;20.87;;;;;;;;;;5052709;28;20201;-69
2021/03/10 03:26:31;;;;;;;25.63;21.67;;;;;;;;;;5052010;28;20221;-69
2021/03/10 03:29:16;;;;;;;23.73;20.97;;;;;;;;;;5052456;28;20208;-70
2021/03/10 03:32:01;;;;;;;25.93;21.60;;;;;;;;;;5052536;28;20248;-69
2021/03/10 03:34:46;;;;;;;25.30;20.83;;;;;;;;;;5052260;28;20933;-70
2021/03/10 03:37:30;;;;;;;23.10;20.57;;;;;;;;;;5049082;28;20226;-70
2021/03/10 03:40:16;;;;;;;23.67;21.03;;;;;;;;;;5044735;28;20271;-69
2021/03/10 03:43:01;;;;;;;25.30;21.37;;;;;;;;;;5052122;28;20209;-69
2021/03/10 03:45:46;;;;;;;25.00;20.83;;;;;;;;;;5052200;28;20726;-69
2021/03/10 03:48:30;;;;;;;26.67;22.17;;;;;;;;;;5052004;28;20749;-69
2021/03/10 03:51:25;;;;;;;23.90;21.40;;;;;;;;;;5052029;28;20279;-69
2021/03/10 03:54:10;;;;;;;25.80;20.33;;;;;;;;;;5052135;28;20755;-68
2021/03/10 03:56:55;;;;;;;32.65;29.42;;;;;;;;;;5050122;28;20818;-68
2021/03/10 03:59:40;;;;;;;27.80;23.13;;;;;;;;;;5052133;28;20618;-68
2021/03/10 04:02:24;;;;;;;23.97;21.37;;;;;;;;;;5051599;28;20216;-68
2021/03/10 04:05:11;;;;;;;24.97;21.73;;;;;;;;;;5051486;28;20204;-68
2021/03/10 04:08:00;;;;;;;22.73;20.00;;;;;;;;;;5051614;28;20210;-69
2021/03/10 04:10:47;;;;;;;21.80;19.50;;;;;;;;;;5051694;28;20309;-69
2021/03/10 04:13:32;;;;;;;22.23;19.83;;;;;;;;;;5052005;28;20201;-68
2021/03/10 04:16:16;;;;;;;22.27;19.87;;;;;;;;;;5051314;28;20351;-69
2021/03/10 04:19:01;;;;;;;23.27;20.30;;;;;;;;;;5051697;28;20201;-69
2021/03/10 04:21:45;;;;;;;24.47;20.77;;;;;;;;;;5051505;28;20262;-68
2021/03/10 04:24:30;;;;;;;23.33;19.87;;;;;;;;;;5051443;28;20208;-69
2021/03/10 04:27:15;;;;;;;23.50;19.57;;;;;;;;;;5051008;28;20248;-69
2021/03/10 04:30:00;;;;;;;31.48;28.08;;;;;;;;;;5050105;28;20525;-68
2021/03/10 04:32:44;;;;;;;26.27;21.93;;;;;;;;;;5047005;28;20836;-68
2021/03/10 04:35:29;;;;;;;22.87;19.93;;;;;;;;;;5042443;28;20233;-69
2021/03/10 04:38:13;;;;;;;22.03;19.73;;;;;;;;;;5049993;28;20733;-68
2021/03/10 04:40:59;;;;;;;23.48;20.63;;;;;;;;;;5030985;28;20465;-69
2021/03/10 04:43:43;;;;;;;21.23;19.03;;;;;;;;;;5031296;28;20879;-69
2021/03/10 04:46:28;;;;;;;22.10;19.80;;;;;;;;;;5037235;28;20285;-69
2021/03/10 04:49:12;;;;;;;23.77;19.80;;;;;;;;;;5050606;28;20252;-68
2021/03/10 04:51:57;;;;;;;22.27;19.13;;;;;;;;;;5050999;28;20244;-69
2021/03/10 04:54:44;;;;;;;21.63;18.47;;;;;;;;;;5051006;28;20201;-69
2021/03/10 04:57:29;;;;;;;22.40;20.00;;;;;;;;;;5050703;28;20688;-69
2021/03/10 05:00:17;;;;;;;22.20;19.80;;;;;;;;;;5051006;28;20221;-69
2021/03/10 05:03:01;;;;;;;23.53;19.17;;;;;;;;;;5050806;28;20255;-69
2021/03/10 05:05:46;;;;;;;21.87;19.50;;;;;;;;;;5051024;28;20260;-68
2021/03/10 05:08:33;;;;;;;22.57;19.37;;;;;;;;;;5051110;28;20259;-69
2021/03/10 05:11:17;;;;;;;21.93;19.67;;;;;;;;;;5050718;28;20750;-69
2021/03/10 05:14:03;;;;;;;22.77;19.43;;;;;;;;;;5051107;28;20244;-69
2021/03/10 05:16:47;;;;;;;21.17;18.87;;;;;;;;;;5053633;28;20372;-69
2021/03/10 05:19:31;;;;;;;23.33;19.70;;;;;;;;;;5054429;28;20221;-69
2021/03/10 05:22:16;;;;;;;22.63;19.73;;;;;;;;;;5054931;28;20201;-68
2021/03/10 05:25:00;;;;;;;23.60;19.90;;;;;;;;;;5054974;28;20259;-69
2021/03/10 05:27:45;;;;;;;28.83;25.93;;;;;;;;;;5053675;28;20502;-69
2021/03/10 05:30:30;;;;;;;25.30;22.20;;;;;;;;;;5054830;28;20224;-68
2021/03/10 05:33:14;;;;;;;22.57;20.17;;;;;;;;;;5054797;28;20712;-68
2021/03/10 05:35:59;;;;;;;24.03;20.07;;;;;;;;;;5054027;28;20708;-69
2021/03/10 05:38:43;;;;;;;22.50;19.87;;;;;;;;;;5054522;28;20487;-69
2021/03/10 05:41:31;;;;;;;23.37;19.53;;;;;;;;;;5054492;28;20204;-69
2021/03/10 05:44:18;;;;;;;23.00;19.90;;;;;;;;;;5054601;28;20240;-69
2021/03/10 05:47:07;;;;;;;22.90;20.43;;;;;;;;;;5053931;28;20193;-68
2021/03/10 05:49:51;;;;;;;24.30;21.33;;;;;;;;;;5054334;28;20238;-68
2021/03/10 05:52:37;;;;;;;24.00;21.47;;;;;;;;;;5054386;28;20233;-69
2021/03/10 05:55:22;;;;;;;23.40;20.90;;;;;;;;;;5054214;28;20225;-68
2021/03/10 05:58:10;;;;;;;26.43;21.10;;;;;;;;;;5053877;28;20217;-69
2021/03/10 06:00:55;;;;;;;26.10;21.37;;;;;;;;;;5054448;28;20213;-68
2021/03/10 06:03:50;;;;;;;24.37;21.80;;;;;;;;;;5054699;28;20675;-68
2021/03/10 06:06:35;;;;;;;25.23;21.73;;;;;;;;;;5053886;28;20664;-69
2021/03/10 06:09:21;;;;;;;22.63;19.73;;;;;;;;;;5054052;28;20360;-69
2021/03/10 06:12:05;;;;;;;30.00;22.90;;;;;;;;;;5054057;28;20237;-68
2021/03/10 06:15:00;;;;;;;29.53;25.93;;;;;;;;;;5053550;28;20922;-69
2021/03/10 06:17:45;;;;;;;32.13;25.23;;;;;;;;;;5053225;28;20423;-69
2021/03/10 06:20:31;;;;;;;34.27;25.20;;;;;;;;;;5053777;28;20217;-69
2021/03/10 06:23:17;;;;;;;32.53;25.47;;;;;;;;;;5053787;28;20201;-69
2021/03/10 06:26:03;;;;;;;33.07;26.07;;;;;;;;;;5052749;28;20685;-69
2021/03/10 06:28:54;;;;;;;34.93;25.90;;;;;;;;;;5053641;28;20210;-68
2021/03/10 06:31:42;;;;;;;42.03;29.57;;;;;;;;;;5053249;28;20279;-69
2021/03/10 06:34:26;;;;;;;41.30;30.13;;;;;;;;;;5053497;28;20197;-69
2021/03/10 06:37:12;;;;;;;38.07;29.87;;;;;;;;;;5052679;28;20723;-68
2021/03/10 06:40:06;;;;;;;48.60;34.13;;;;;;;;;;5053348;28;20229;-68
2021/03/10 06:42:53;;;;;;;51.23;36.57;;;;;;;;;;5053539;28;20292;-68
2021/03/10 06:45:38;;;;;;;50.20;34.83;;;;;;;;;;5053492;28;20256;-68
2021/03/10 06:48:23;;;;;;;50.10;35.27;;;;;;;;;;5053454;28;20209;-68
2021/03/10 06:51:14;;;;;;;53.20;36.50;;;;;;;;;;5053654;28;20269;-68
2021/03/10 06:54:00;;;;;;;53.27;36.53;;;;;;;;;;5053304;28;20252;-68
2021/03/10 06:56:47;;;;;;;54.47;36.70;;;;;;;;;;5052621;28;20234;-70
2021/03/10 06:59:38;;;;;;;55.80;39.50;;;;;;;;;;5053018;28;20222;-68
2021/03/10 07:02:24;;;;;;;61.90;44.25;;;;;;;;;;5052598;28;20930;-69
2021/03/10 07:05:10;;;;;;;54.37;39.97;;;;;;;;;;5052879;28;20285;-69
2021/03/10 07:07:55;;;;;;;57.40;40.20;;;;;;;;;;5052328;28;20289;-69
2021/03/10 07:10:49;;;;;;;59.13;39.90;;;;;;;;;;5052749;28;20276;-69
2021/03/10 07:13:34;;;;;;;53.87;39.10;;;;;;;;;;5052707;28;20613;-68
2021/03/10 07:16:19;;;;;;;60.00;40.37;;;;;;;;;;5052231;28;20582;-69
2021/03/10 07:19:04;;;;;;;60.40;43.03;;;;;;;;;;5052635;28;20715;-69
2021/03/10 07:21:54;;;;;;;63.90;43.30;;;;;;;;;;5052714;28;20200;-69
2021/03/10 07:24:42;;;;;;;60.87;44.73;;;;;;;;;;5052474;28;20205;-69
2021/03/10 07:27:32;;;;;;;61.33;42.17;;;;;;;;;;5052103;28;20258;-69
2021/03/10 07:30:17;;;;;;;64.80;44.37;;;;;;;;;;5052242;28;20736;-69
2021/03/10 07:33:10;;;;;;;63.90;44.53;;;;;;;;;;5052416;28;20252;-70
2021/03/10 07:35:55;;;;;;;66.83;46.07;;;;;;;;;;5051957;28;20296;-69
2021/03/10 07:38:40;;;;;;;63.43;45.67;;;;;;;;;;5051437;28;20198;-69
2021/03/10 07:41:36;;;;;;;63.27;46.40;;;;;;;;;;5052426;28;20244;-69
2021/03/10 07:44:23;;;;;;;60.97;45.73;;;;;;;;;;5051933;28;20214;-69
2021/03/10 07:47:08;;;;;;;66.87;48.13;;;;;;;;;;5052007;28;20263;-69
2021/03/10 07:50:00;;;;;;;81.22;62.78;;;;;;;;;;5050640;28;20560;-69
2021/03/10 07:52:52;;;;;;;68.57;50.63;;;;;;;;;;5052191;28;20659;-69
2021/03/10 07:55:45;;;;;;;70.53;49.20;;;;;;;;;;5052079;28;20225;-70
2021/03/10 07:58:33;;;;;;;67.13;48.30;;;;;;;;;;5051829;28;20206;-69
2021/03/10 08:01:21;;;;;;;68.93;49.43;;;;;;;;;;5051922;28;20244;-69
2021/03/10 08:04:07;;;;;;;67.50;48.93;;;;;;;;;;5051733;28;20202;-70
2021/03/10 08:06:52;;;;;;;64.20;47.70;;;;;;;;;;5051345;28;20257;-69
2021/03/10 08:09:37;;;;;;;65.53;50.07;;;;;;;;;;5051465;28;20605;-69
2021/03/10 08:12:32;;;;;;;65.90;49.70;;;;;;;;;;5051638;28;20198;-70
2021/03/10 08:15:20;;;;;;;62.53;48.27;;;;;;;;;;5051736;28;20203;-69
2021/03/10 08:18:07;;;;;;;62.20;46.43;;;;;;;;;;5050878;28;20217;-69
2021/03/10 08:20:52;;;;;;;64.63;48.67;;;;;;;;;;5051513;28;20281;-69
2021/03/10 08:23:39;;;;;;;67.57;52.73;;;;;;;;;;5051557;28;20219;-69
2021/03/10 08:26:23;;;;;;;62.03;50.23;;;;;;;;;;5050999;28;20672;-69
2021/03/10 08:29:07;;;;;;;65.63;49.90;;;;;;;;;;5051232;28;20276;-69
2021/03/10 08:31:53;;;;;;;60.53;48.80;;;;;;;;;;5042172;28;20230;-69
2021/03/10 08:34:38;;;;;;;63.40;56.40;;;;;;;;;;5042995;28;20494;-70
2021/03/10 08:37:23;;;;;;;59.50;49.73;;;;;;;;;;5031298;28;20481;-70
2021/03/10 08:40:08;;;;;;;62.63;47.47;;;;;;;;;;5040189;28;20303;-70
2021/03/10 08:42:53;;;;;;;55.63;45.00;;;;;;;;;;5051102;28;20731;-76
2021/03/10 08:45:38;;;;;;;55.37;45.30;;;;;;;;;;5049978;28;20233;-72
2021/03/10 08:48:25;;;;;;;55.03;45.47;;;;;;;;;;5031276;28;20623;-75
2021/03/10 08:51:11;;;;;;;53.20;45.13;;;;;;;;;;5048531;28;20564;-76
2021/03/10 08:54:04;;;;;;;57.57;45.97;;;;;;;;;;5050285;28;20208;-71
2021/03/10 08:56:48;;;;;;;54.03;44.37;;;;;;;;;;5048386;28;20598;-72
2021/03/10 08:59:35;;;;;;;54.10;43.23;;;;;;;;;;5034629;28;20246;-72
2021/03/10 09:02:29;;;;;;;53.57;44.30;;;;;;;;;;5031507;28;20231;-72
2021/03/10 09:05:14;;;;;;;52.27;44.47;;;;;;;;;;5030828;28;20238;-71
2021/03/10 09:08:00;;;;;;;53.87;44.73;;;;;;;;;;5048343;28;20228;-69
2021/03/10 09:10:47;;;;;;;52.33;44.47;;;;;;;;;;5050591;28;20571;-69
2021/03/10 09:13:32;;;;;;;49.07;42.40;;;;;;;;;;5050797;28;20676;-70
2021/03/10 09:16:16;;;;;;;48.03;42.53;;;;;;;;;;5049618;28;20754;-71
2021/03/10 09:19:01;;;;;;;51.90;44.00;;;;;;;;;;5041935;28;20263;-70
2021/03/10 09:21:45;;;;;;;48.00;42.83;;;;;;;;;;5031838;28;20277;-72
2021/03/10 09:24:34;;;;;;;49.60;41.97;;;;;;;;;;5044031;28;20216;-72
2021/03/10 09:27:19;;;;;;;46.97;41.57;;;;;;;;;;5037559;28;20723;-72
2021/03/10 09:30:05;;;;;;;51.03;41.93;;;;;;;;;;5030664;28;20228;-71
2021/03/10 09:32:50;;;;;;;46.57;41.40;;;;;;;;;;5030431;28;20628;-72
2021/03/10 09:35:35;;;;;;;50.20;41.70;;;;;;;;;;5030597;28;20212;-70
2021/03/10 09:38:19;;;;;;;47.40;41.53;;;;;;;;;;5031419;28;20283;-70
2021/03/10 09:41:05;;;;;;;47.27;41.57;;;;;;;;;;5039973;28;20205;-72
2021/03/10 09:43:59;;;;;;;45.90;40.43;;;;;;;;;;5042690;28;20208;-70
2021/03/10 09:46:44;;;;;;;45.13;39.70;;;;;;;;;;5043079;28;20255;-70
2021/03/10 09:49:31;;;;;;;47.20;39.37;;;;;;;;;;5047718;28;20230;-70
2021/03/10 09:52:16;;;;;;;46.17;40.67;;;;;;;;;;5030330;28;20205;-70
2021/03/10 09:55:00;;;;;;;43.80;39.07;;;;;;;;;;5030357;28;20349;-70
2021/03/10 09:57:47;;;;;;;45.27;40.10;;;;;;;;;;5035714;28;20208;-70
2021/03/10 10:00:31;;;;;;;44.23;39.57;;;;;;;;;;5050001;28;20262;-70
2021/03/10 10:03:25;;;;;;;44.40;38.77;;;;;;;;;;5053559;28;20304;-69
2021/03/10 10:06:16;;;;;;;44.63;38.67;;;;;;;;;;5052485;28;20262;-71
2021/03/10 10:09:00;;;;;;;44.37;38.53;;;;;;;;;;5053087;28;20233;-70
2021/03/10 10:11:45;;;;;;;45.63;39.07;;;;;;;;;;5054054;28;20209;-69
2021/03/10 10:14:38;;;;;;;43.73;39.13;;;;;;;;;;5053853;28;20258;-70
2021/03/10 10:17:26;;;;;;;45.67;39.80;;;;;;;;;;5053052;28;20283;-70
2021/03/10 10:20:12;;;;;;;43.70;38.90;;;;;;;;;;5053204;28;20283;-72
2021/03/10 10:22:56;;;;;;;40.87;36.43;;;;;;;;;;5053409;28;20247;-71
2021/03/10 10:25:41;;;;;;;42.60;37.93;;;;;;;;;;5053454;28;20332;-73
2021/03/10 10:28:25;;;;;;;41.57;37.17;;;;;;;;;;5053378;28;20209;-71
2021/03/10 10:31:11;;;;;;;39.57;35.33;;;;;;;;;;5053508;28;20387;-71
2021/03/10 10:33:55;;;;;;;38.83;34.67;;;;;;;;;;5053547;28;20205;-70
2021/03/10 10:36:42;;;;;;;44.85;40.58;;;;;;;;;;5050865;28;20479;-69
2021/03/10 10:39:27;;;;;;;40.30;36.20;;;;;;;;;;5049883;28;20225;-69
2021/03/10 10:42:11;;;;;;;39.13;34.90;;;;;;;;;;5041799;28;20224;-69
2021/03/10 10:44:56;;;;;;;36.50;32.43;;;;;;;;;;5045405;28;20224;-71
2021/03/10 10:47:41;;;;;;;35.80;32.00;;;;;;;;;;5051297;28;20236;-70
2021/03/10 10:50:26;;;;;;;38.53;34.85;;;;;;;;;;5037523;28;20399;-71
2021/03/10 10:53:10;;;;;;;35.67;31.87;;;;;;;;;;5036234;28;20242;-71
2021/03/10 10:55:55;;;;;;;33.63;30.07;;;;;;;;;;5032124;28;20353;-71
2021/03/10 10:58:41;;;;;;;33.13;29.53;;;;;;;;;;5046699;28;20225;-73
2021/03/10 11:01:29;;;;;;;32.07;28.83;;;;;;;;;;5052544;28;20217;-73
2021/03/10 11:04:14;;;;;;;30.57;27.47;;;;;;;;;;5052949;28;20252;-72
2021/03/10 11:06:58;;;;;;;30.80;27.50;;;;;;;;;;5044424;28;20275;-74
2021/03/10 11:09:43;;;;;;;32.47;28.90;;;;;;;;;;5032754;28;20253;-71
2021/03/10 11:12:27;;;;;;;31.63;28.23;;;;;;;;;;5032645;28;20206;-71
2021/03/10 11:15:12;;;;;;;32.03;27.43;;;;;;;;;;5032930;28;20228;-73
2021/03/10 11:17:56;;;;;;;30.80;27.63;;;;;;;;;;5032020;28;20233;-73
2021/03/10 11:20:42;;;;;;;31.80;28.47;;;;;;;;;;5032695;28;20278;-72
2021/03/10 11:23:28;;;;;;;28.73;25.73;;;;;;;;;;5032550;28;20689;-73
2021/03/10 11:26:12;;;;;;;29.80;26.63;;;;;;;;;;5032087;28;20234;-73
2021/03/10 11:28:57;;;;;;;27.97;25.07;;;;;;;;;;5046495;28;20248;-73
2021/03/10 11:31:44;;;;;;;29.67;26.67;;;;;;;;;;5052456;28;20220;-74
2021/03/10 11:34:29;;;;;;;27.03;24.43;;;;;;;;;;5047433;28;20766;-75
2021/03/10 11:37:17;;;;;;;26.30;23.70;;;;;;;;;;5039179;28;20579;-73
2021/03/10 11:40:02;;;;;;;27.10;24.33;;;;;;;;;;5031752;28;20348;-72
2021/03/10 11:42:47;;;;;;;24.23;21.93;;;;;;;;;;5032106;28;20294;-74
2021/03/10 11:45:31;;;;;;;25.97;23.13;;;;;;;;;;5032164;28;20204;-74
2021/03/10 11:48:16;;;;;;;24.07;21.60;;;;;;;;;;5040584;28;20228;-73
2021/03/10 11:51:00;;;;;;;23.27;20.97;;;;;;;;;;5042153;28;20728;-72
2021/03/10 11:53:46;;;;;;;23.20;21.00;;;;;;;;;;5031315;28;20203;-72
2021/03/10 11:56:30;;;;;;;22.67;20.33;;;;;;;;;;5031326;28;20297;-72
2021/03/10 11:59:15;;;;;;;22.10;19.90;;;;;;;;;;5031688;28;20225;-72
2021/03/10 12:02:00;;;;;;;21.43;19.17;;;;;;;;;;5048881;22;20233;-70
2021/03/10 12:04:44;;;;;;;21.90;19.63;;;;;;;;;;5032056;28;20205;-71
2021/03/10 12:07:29;;;;;;;23.53;21.00;;;;;;;;;;5031826;28;20948;-71
2021/03/10 12:10:15;;;;;;;22.30;19.97;;;;;;;;;;5036434;28;20283;-71
2021/03/10 12:12:59;;;;;;;24.07;21.30;;;;;;;;;;5042357;28;20256;-72
2021/03/10 12:15:44;;;;;;;23.97;21.40;;;;;;;;;;5032193;28;20585;-72
2021/03/10 12:18:28;;;;;;;23.27;21.15;;;;;;;;;;5030808;28;20433;-72
2021/03/10 12:21:13;;;;;;;21.90;19.70;;;;;;;;;;5031683;28;20240;-72
2021/03/10 12:23:58;;;;;;;22.20;19.90;;;;;;;;;;5040756;28;20220;-72
2021/03/10 12:26:43;;;;;;;21.00;19.00;;;;;;;;;;5036891;28;20727;-72
2021/03/10 12:29:28;;;;;;;22.57;20.40;;;;;;;;;;5031348;28;20222;-72
2021/03/10 12:32:12;;;;;;;22.30;19.90;;;;;;;;;;5031341;28;20202;-72
2021/03/10 12:34:57;;;;;;;25.40;19.90;;;;;;;;;;5031250;28;20205;-72
2021/03/10 12:37:41;;;;;;;22.50;20.17;;;;;;;;;;5033479;28;20224;-72
2021/03/10 12:40:26;;;;;;;22.37;20.17;;;;;;;;;;5043575;28;20630;-72
2021/03/10 12:43:11;;;;;;;21.43;19.30;;;;;;;;;;5042592;28;20209;-70
2021/03/10 12:45:56;;;;;;;22.47;20.13;;;;;;;;;;5050183;28;20213;-71
2021/03/10 12:48:40;;;;;;;22.30;20.00;;;;;;;;;;5050954;28;20232;-72
2021/03/10 12:51:24;;;;;;;21.20;19.13;;;;;;;;;;5051125;28;20239;-72
2021/03/10 12:54:09;;;;;;;21.77;19.47;;;;;;;;;;5037347;28;20688;-73
2021/03/10 12:56:54;;;;;;;21.80;19.63;;;;;;;;;;5031326;28;20237;-72
2021/03/10 12:59:39;;;;;;;22.23;20.13;;;;;;;;;;5051015;28;20429;-72
2021/03/10 13:02:24;;;;;;;22.13;20.10;;;;;;;;;;5043297;28;20211;-69
2021/03/10 13:05:09;;;;;;;21.57;19.23;;;;;;;;;;5030894;28;20685;-70
2021/03/10 13:07:54;;;;;;;21.80;19.80;;;;;;;;;;5029871;28;20202;-70
2021/03/10 13:10:38;;;;;;;22.03;19.93;;;;;;;;;;5030607;28;20278;-72
2021/03/10 13:13:23;;;;;;;21.80;19.57;;;;;;;;;;5030883;28;20206;-73
2021/03/10 13:16:08;;;;;;;22.17;20.07;;;;;;;;;;5049202;28;20268;-74
2021/03/10 13:18:53;;;;;;;21.47;19.20;;;;;;;;;;5038230;28;20224;-72
2021/03/10 13:21:37;;;;;;;21.77;19.73;;;;;;;;;;5048994;28;20206;-69
2021/03/10 13:24:21;;;;;;;20.80;18.63;;;;;;;;;;5042014;28;20241;-72
2021/03/10 13:27:06;;;;;;;20.73;18.60;;;;;;;;;;5049644;28;20265;-75
2021/03/10 13:29:51;;;;;;;20.83;19.03;;;;;;;;;;5050384;28;20217;-75
2021/03/10 13:32:36;;;;;;;20.33;18.43;;;;;;;;;;5050837;28;20582;-75
2021/03/10 13:35:21;;;;;;;20.37;18.50;;;;;;;;;;5050881;28;20571;-75
2021/03/10 13:38:05;;;;;;;20.33;18.40;;;;;;;;;;5053772;28;20224;-75
2021/03/10 13:40:50;;;;;;;20.63;18.03;;;;;;;;;;5054678;28;20201;-75
2021/03/10 13:43:35;;;;;;;20.60;18.80;;;;;;;;;;5054432;28;20417;-75
2021/03/10 13:46:19;;;;;;;20.43;18.43;;;;;;;;;;5054429;28;20593;-75
2021/03/10 13:49:04;;;;;;;20.27;18.33;;;;;;;;;;5054382;28;20217;-75
2021/03/10 13:51:49;;;;;;;19.47;17.60;;;;;;;;;;5054205;28;20206;-75
2021/03/10 13:54:33;;;;;;;19.03;17.23;;;;;;;;;;5054424;28;20676;-75
2021/03/10 13:57:18;;;;;;;18.93;17.13;;;;;;;;;;5053580;28;20252;-75
2021/03/10 14:00:04;;;;;;;18.90;17.10;;;;;;;;;;5054342;28;20722;-75
2021/03/10 14:02:48;;;;;;;18.10;16.40;;;;;;;;;;5054157;28;20688;-75
2021/03/10 14:05:33;;;;;;;18.77;16.87;;;;;;;;;;5054351;28;20719;-75
2021/03/10 14:08:18;;;;;;;18.90;16.77;;;;;;;;;;5053973;28;20248;-75
2021/03/10 14:11:02;;;;;;;17.43;15.77;;;;;;;;;;5054067;28;20257;-75
2021/03/10 14:13:47;;;;;;;19.00;17.03;;;;;;;;;;5054076;28;20228;-75
2021/03/10 14:16:31;;;;;;;18.47;16.67;;;;;;;;;;5053522;28;20245;-75
2021/03/10 14:19:16;;;;;;;19.10;17.13;;;;;;;;;;5053490;28;20226;-75
2021/03/10 14:22:01;;;;;;;17.93;16.30;;;;;;;;;;5053863;28;20253;-75
2021/03/10 14:24:46;;;;;;;18.90;17.10;;;;;;;;;;5053869;28;20562;-75
2021/03/10 14:27:30;;;;;;;19.17;17.58;;;;;;;;;;5052844;28;20408;-75
2021/03/10 14:30:15;;;;;;;18.63;16.93;;;;;;;;;;5054237;28;20243;-75
2021/03/10 14:32:59;;;;;;;18.40;16.63;;;;;;;;;;5053903;28;20230;-75
2021/03/10 14:35:44;;;;;;;18.07;16.40;;;;;;;;;;5053620;28;20256;-75
2021/03/10 14:38:29;;;;;;;17.47;15.77;;;;;;;;;;5053543;28;20226;-74
2021/03/10 14:41:14;;;;;;;17.63;16.03;;;;;;;;;;5053513;28;20610;-75
2021/03/10 14:44:01;;;;;;;20.07;18.20;;;;;;;;;;5053703;28;20208;-75
2021/03/10 14:46:45;;;;;;;19.03;17.17;;;;;;;;;;5052302;28;20701;-72
2021/03/10 14:49:29;;;;;;;20.10;17.83;;;;;;;;;;5049473;28;20218;-73
2021/03/10 14:52:14;;;;;;;18.83;17.03;;;;;;;;;;5045300;28;20684;-71
2021/03/10 14:55:00;;;;;;;20.17;18.17;;;;;;;;;;5051456;28;20585;-71
2021/03/10 14:57:44;;;;;;;18.10;16.47;;;;;;;;;;5051661;28;20240;-72
2021/03/10 15:00:29;;;;;;;18.87;16.97;;;;;;;;;;5050900;28;20212;-70
2021/03/10 15:03:13;;;;;;;18.63;16.70;;;;;;;;;;5032823;28;20215;-74
2021/03/10 15:05:58;;;;;;;18.57;16.80;;;;;;;;;;5046956;28;20264;-72
2021/03/10 15:08:43;;;;;;;19.30;17.50;;;;;;;;;;5043294;28;20428;-71
2021/03/10 15:11:28;;;;;;;18.50;16.60;;;;;;;;;;5052756;28;20454;-73
2021/03/10 15:14:12;;;;;;;18.53;16.83;;;;;;;;;;5052517;28;20257;-70
2021/03/10 15:16:57;;;;;;;18.57;16.63;;;;;;;;;;5049966;28;20799;-72
2021/03/10 15:19:41;;;;;;;18.63;16.80;;;;;;;;;;5051797;28;20215;-68
2021/03/10 15:22:26;;;;;;;18.13;16.07;;;;;;;;;;5045688;28;20205;-72
2021/03/10 15:25:11;;;;;;;18.27;16.37;;;;;;;;;;5051651;28;20615;-71
2021/03/10 15:27:56;;;;;;;18.30;16.50;;;;;;;;;;5049963;28;20751;-72
2021/03/10 15:30:41;;;;;;;17.80;16.03;;;;;;;;;;5040222;28;20205;-72
2021/03/10 15:33:26;;;;;;;17.77;16.00;;;;;;;;;;5052366;28;20290;-73
2021/03/10 15:36:10;;;;;;;19.90;15.83;;;;;;;;;;5037919;28;20205;-72
2021/03/10 15:38:54;;;;;;;17.17;15.60;;;;;;;;;;5037411;28;20296;-73
2021/03/10 15:41:39;;;;;;;17.17;15.57;;;;;;;;;;5051809;28;20252;-72
2021/03/10 15:44:24;;;;;;;18.90;17.00;;;;;;;;;;5052236;28;20741;-71
2021/03/10 15:47:09;;;;;;;17.97;15.50;;;;;;;;;;5050316;28;20208;-72
2021/03/10 15:49:53;;;;;;;16.73;15.03;;;;;;;;;;5031835;28;20680;-71
2021/03/10 15:52:38;;;;;;;18.83;17.13;;;;;;;;;;5037031;28;20424;-71
2021/03/10 15:55:22;;;;;;;16.50;14.90;;;;;;;;;;5037180;28;20238;-71
2021/03/10 15:58:07;;;;;;;16.93;15.17;;;;;;;;;;5037970;28;20234;-71
2021/03/10 16:00:52;;;;;;;16.93;15.13;;;;;;;;;;5031459;28;20692;-75
2021/03/10 16:03:37;;;;;;;17.77;15.97;;;;;;;;;;5031363;28;20492;-73